sensor_id;sensor_type;location;lat;lon;timestamp;P1;durP1;ratioP1;P2;durP2;ratioP2
39524;SDS011;25203;50.754;6.978;2023-11-21T00:00:59;31.40;;;18.02;;
39524;SDS011;25203;50.754;6.978;2023-11-21T00:03:03;34.13;;;19.20;;
39524;SDS011;25203;50.754;6.978;2023-11-21T00:05:04;29.52;;;17.15;;
39524;SDS011;25203;50.754;6.978;2023-11-21T00:07:05;34.22;;;20.17;;
39524;SDS011;25203;50.754;6.978;2023-11-21T00:09:06;32.53;;;17.98;;
39524;SDS011;25203;50.754;6.978;2023-11-21T00:11:08;29.95;;;16.98;;
39524;SDS011;25203;50.754;6.978;2023-11-21T00:13:09;29.83;;;17.05;;
39524;SDS011;25203;50.754;6.978;2023-11-21T00:15:12;40.58;;;20.85;;
39524;SDS011;25203;50.754;6.978;2023-11-21T00:17:13;37.15;;;20.35;;
39524;SDS011;25203;50.754;6.978;2023-11-21T00:19:13;33.78;;;20.48;;
39524;SDS011;25203;50.754;6.978;2023-11-21T00:21:14;34.90;;;18.33;;
39524;SDS011;25203;50.754;6.978;2023-11-21T00:23:14;37.03;;;19.63;;
39524;SDS011;25203;50.754;6.978;2023-11-21T00:25:15;37.60;;;20.15;;
39524;SDS011;25203;50.754;6.978;2023-11-21T00:27:17;35.13;;;19.35;;
39524;SDS011;25203;50.754;6.978;2023-11-21T00:29:18;37.75;;;19.90;;
39524;SDS011;25203;50.754;6.978;2023-11-21T00:31:18;48.55;;;23.15;;
39524;SDS011;25203;50.754;6.978;2023-11-21T00:33:19;48.58;;;21.77;;
39524;SDS011;25203;50.754;6.978;2023-11-21T00:35:19;49.28;;;22.02;;
39524;SDS011;25203;50.754;6.978;2023-11-21T00:37:20;42.38;;;20.83;;
39524;SDS011;25203;50.754;6.978;2023-11-21T00:39:21;43.70;;;22.45;;
39524;SDS011;25203;50.754;6.978;2023-11-21T00:41:21;48.05;;;23.25;;
39524;SDS011;25203;50.754;6.978;2023-11-21T00:43:22;36.15;;;20.90;;
39524;SDS011;25203;50.754;6.978;2023-11-21T00:45:23;49.10;;;22.13;;
39524;SDS011;25203;50.754;6.978;2023-11-21T00:47:24;45.95;;;21.70;;
39524;SDS011;25203;50.754;6.978;2023-11-21T00:49:24;48.67;;;23.50;;
39524;SDS011;25203;50.754;6.978;2023-11-21T00:51:25;49.10;;;24.25;;
39524;SDS011;25203;50.754;6.978;2023-11-21T00:53:26;46.28;;;23.67;;
39524;SDS011;25203;50.754;6.978;2023-11-21T00:55:26;46.53;;;22.58;;
39524;SDS011;25203;50.754;6.978;2023-11-21T00:57:28;48.53;;;23.73;;
39524;SDS011;25203;50.754;6.978;2023-11-21T00:59:29;51.92;;;24.58;;
39524;SDS011;25203;50.754;6.978;2023-11-21T01:01:30;47.03;;;22.55;;
39524;SDS011;25203;50.754;6.978;2023-11-21T01:03:31;44.58;;;22.30;;
39524;SDS011;25203;50.754;6.978;2023-11-21T01:05:31;45.17;;;23.38;;
39524;SDS011;25203;50.754;6.978;2023-11-21T01:07:32;51.38;;;21.65;;
39524;SDS011;25203;50.754;6.978;2023-11-21T01:09:32;51.08;;;21.95;;
39524;SDS011;25203;50.754;6.978;2023-11-21T01:11:36;38.72;;;19.65;;
39524;SDS011;25203;50.754;6.978;2023-11-21T01:13:38;46.50;;;24.67;;
39524;SDS011;25203;50.754;6.978;2023-11-21T01:15:39;56.55;;;24.58;;
39524;SDS011;25203;50.754;6.978;2023-11-21T01:17:40;44.15;;;22.25;;
39524;SDS011;25203;50.754;6.978;2023-11-21T01:19:41;64.10;;;25.40;;
39524;SDS011;25203;50.754;6.978;2023-11-21T01:21:41;62.35;;;25.73;;
39524;SDS011;25203;50.754;6.978;2023-11-21T01:23:42;52.72;;;23.60;;
39524;SDS011;25203;50.754;6.978;2023-11-21T01:25:42;56.05;;;24.67;;
39524;SDS011;25203;50.754;6.978;2023-11-21T01:27:43;58.85;;;25.20;;
39524;SDS011;25203;50.754;6.978;2023-11-21T01:29:44;100.10;;;31.33;;
39524;SDS011;25203;50.754;6.978;2023-11-21T01:31:44;69.38;;;27.67;;
39524;SDS011;25203;50.754;6.978;2023-11-21T01:33:45;74.35;;;30.20;;
39524;SDS011;25203;50.754;6.978;2023-11-21T01:35:46;61.55;;;26.98;;
39524;SDS011;25203;50.754;6.978;2023-11-21T01:37:46;75.63;;;28.20;;
39524;SDS011;25203;50.754;6.978;2023-11-21T01:39:48;62.38;;;25.23;;
39524;SDS011;25203;50.754;6.978;2023-11-21T01:41:51;75.97;;;29.85;;
39524;SDS011;25203;50.754;6.978;2023-11-21T01:43:52;84.85;;;32.60;;
39524;SDS011;25203;50.754;6.978;2023-11-21T01:45:54;78.90;;;30.52;;
39524;SDS011;25203;50.754;6.978;2023-11-21T01:47:57;77.25;;;32.05;;
39524;SDS011;25203;50.754;6.978;2023-11-21T01:49:58;88.03;;;32.13;;
39524;SDS011;25203;50.754;6.978;2023-11-21T01:51:59;97.75;;;32.92;;
39524;SDS011;25203;50.754;6.978;2023-11-21T01:54:00;89.20;;;34.88;;
39524;SDS011;25203;50.754;6.978;2023-11-21T01:56:01;75.55;;;29.92;;
39524;SDS011;25203;50.754;6.978;2023-11-21T01:58:01;69.55;;;29.10;;
39524;SDS011;25203;50.754;6.978;2023-11-21T02:00:02;74.63;;;29.08;;
39524;SDS011;25203;50.754;6.978;2023-11-21T02:02:15;69.90;;;28.58;;
39524;SDS011;25203;50.754;6.978;2023-11-21T02:04:16;78.25;;;30.27;;
39524;SDS011;25203;50.754;6.978;2023-11-21T02:06:18;78.88;;;29.48;;
39524;SDS011;25203;50.754;6.978;2023-11-21T02:08:19;66.03;;;28.85;;
39524;SDS011;25203;50.754;6.978;2023-11-21T02:10:20;80.57;;;30.58;;
39524;SDS011;25203;50.754;6.978;2023-11-21T02:12:23;92.53;;;32.35;;
39524;SDS011;25203;50.754;6.978;2023-11-21T02:14:26;62.08;;;29.95;;
39524;SDS011;25203;50.754;6.978;2023-11-21T02:16:27;56.40;;;27.52;;
39524;SDS011;25203;50.754;6.978;2023-11-21T02:18:31;60.95;;;30.48;;
39524;SDS011;25203;50.754;6.978;2023-11-21T02:20:32;65.40;;;28.92;;
39524;SDS011;25203;50.754;6.978;2023-11-21T02:22:34;68.00;;;28.67;;
39524;SDS011;25203;50.754;6.978;2023-11-21T02:24:40;62.90;;;29.55;;
39524;SDS011;25203;50.754;6.978;2023-11-21T02:26:42;65.05;;;31.15;;
39524;SDS011;25203;50.754;6.978;2023-11-21T02:28:43;70.03;;;30.70;;
39524;SDS011;25203;50.754;6.978;2023-11-21T02:30:43;111.40;;;38.80;;
39524;SDS011;25203;50.754;6.978;2023-11-21T02:32:44;91.70;;;37.05;;
39524;SDS011;25203;50.754;6.978;2023-11-21T02:34:44;85.25;;;34.65;;
39524;SDS011;25203;50.754;6.978;2023-11-21T02:36:46;95.22;;;38.38;;
39524;SDS011;25203;50.754;6.978;2023-11-21T02:38:49;86.63;;;40.33;;
39524;SDS011;25203;50.754;6.978;2023-11-21T02:40:50;70.38;;;35.67;;
39524;SDS011;25203;50.754;6.978;2023-11-21T02:42:50;101.97;;;42.50;;
39524;SDS011;25203;50.754;6.978;2023-11-21T02:44:51;85.57;;;39.78;;
39524;SDS011;25203;50.754;6.978;2023-11-21T02:46:52;99.22;;;43.65;;
39524;SDS011;25203;50.754;6.978;2023-11-21T02:48:52;117.50;;;46.33;;
39524;SDS011;25203;50.754;6.978;2023-11-21T02:50:54;101.85;;;45.50;;
39524;SDS011;25203;50.754;6.978;2023-11-21T02:52:55;132.52;;;50.00;;
39524;SDS011;25203;50.754;6.978;2023-11-21T02:54:57;125.63;;;49.13;;
39524;SDS011;25203;50.754;6.978;2023-11-21T02:56:58;110.25;;;46.33;;
39524;SDS011;25203;50.754;6.978;2023-11-21T02:58:59;136.40;;;48.33;;
39524;SDS011;25203;50.754;6.978;2023-11-21T03:01:00;98.45;;;44.13;;
39524;SDS011;25203;50.754;6.978;2023-11-21T03:03:02;163.45;;;53.95;;
39524;SDS011;25203;50.754;6.978;2023-11-21T03:05:04;151.93;;;51.30;;
39524;SDS011;25203;50.754;6.978;2023-11-21T03:07:05;90.88;;;41.75;;
39524;SDS011;25203;50.754;6.978;2023-11-21T03:09:06;105.45;;;44.03;;
39524;SDS011;25203;50.754;6.978;2023-11-21T03:11:07;149.07;;;53.08;;
39524;SDS011;25203;50.754;6.978;2023-11-21T03:13:08;110.35;;;47.67;;
39524;SDS011;25203;50.754;6.978;2023-11-21T03:15:08;128.85;;;47.92;;
39524;SDS011;25203;50.754;6.978;2023-11-21T03:17:09;99.82;;;41.70;;
39524;SDS011;25203;50.754;6.978;2023-11-21T03:19:11;117.85;;;46.35;;
39524;SDS011;25203;50.754;6.978;2023-11-21T03:21:12;95.07;;;40.55;;
39524;SDS011;25203;50.754;6.978;2023-11-21T03:23:13;92.05;;;40.78;;
39524;SDS011;25203;50.754;6.978;2023-11-21T03:25:13;98.70;;;42.83;;
39524;SDS011;25203;50.754;6.978;2023-11-21T03:27:14;133.75;;;45.10;;
39524;SDS011;25203;50.754;6.978;2023-11-21T03:29:15;107.80;;;42.90;;
39524;SDS011;25203;50.754;6.978;2023-11-21T03:31:15;105.15;;;42.45;;
39524;SDS011;25203;50.754;6.978;2023-11-21T03:33:18;93.30;;;40.75;;
39524;SDS011;25203;50.754;6.978;2023-11-21T03:35:19;107.65;;;43.97;;
39524;SDS011;25203;50.754;6.978;2023-11-21T03:37:21;107.32;;;41.40;;
39524;SDS011;25203;50.754;6.978;2023-11-21T03:39:21;87.50;;;40.40;;
39524;SDS011;25203;50.754;6.978;2023-11-21T03:41:22;88.35;;;39.30;;
39524;SDS011;25203;50.754;6.978;2023-11-21T03:43:23;86.50;;;40.05;;
39524;SDS011;25203;50.754;6.978;2023-11-21T03:45:25;104.95;;;42.67;;
39524;SDS011;25203;50.754;6.978;2023-11-21T03:47:28;75.00;;;35.25;;
39524;SDS011;25203;50.754;6.978;2023-11-21T03:49:28;94.05;;;37.47;;
39524;SDS011;25203;50.754;6.978;2023-11-21T03:51:29;126.20;;;43.60;;
39524;SDS011;25203;50.754;6.978;2023-11-21T03:53:30;73.43;;;34.15;;
39524;SDS011;25203;50.754;6.978;2023-11-21T03:55:30;115.78;;;42.63;;
39524;SDS011;25203;50.754;6.978;2023-11-21T03:57:31;81.80;;;36.40;;
39524;SDS011;25203;50.754;6.978;2023-11-21T03:59:32;97.30;;;39.08;;
39524;SDS011;25203;50.754;6.978;2023-11-21T04:01:32;102.03;;;37.28;;
39524;SDS011;25203;50.754;6.978;2023-11-21T04:03:33;89.75;;;33.88;;
39524;SDS011;25203;50.754;6.978;2023-11-21T04:05:33;90.30;;;35.33;;
39524;SDS011;25203;50.754;6.978;2023-11-21T04:07:34;89.85;;;33.40;;
39524;SDS011;25203;50.754;6.978;2023-11-21T04:09:35;91.72;;;34.40;;
39524;SDS011;25203;50.754;6.978;2023-11-21T04:11:36;110.18;;;37.78;;
39524;SDS011;25203;50.754;6.978;2023-11-21T04:13:37;153.35;;;43.33;;
39524;SDS011;25203;50.754;6.978;2023-11-21T04:15:38;101.88;;;36.85;;
39524;SDS011;25203;50.754;6.978;2023-11-21T04:17:39;151.30;;;45.50;;
39524;SDS011;25203;50.754;6.978;2023-11-21T04:19:40;120.53;;;42.08;;
39524;SDS011;25203;50.754;6.978;2023-11-21T04:21:41;118.75;;;43.17;;
39524;SDS011;25203;50.754;6.978;2023-11-21T04:23:42;122.60;;;44.55;;
39524;SDS011;25203;50.754;6.978;2023-11-21T04:25:43;159.15;;;44.45;;
39524;SDS011;25203;50.754;6.978;2023-11-21T04:27:45;128.15;;;40.00;;
39524;SDS011;25203;50.754;6.978;2023-11-21T04:29:46;103.57;;;40.40;;
39524;SDS011;25203;50.754;6.978;2023-11-21T04:31:46;121.95;;;38.75;;
39524;SDS011;25203;50.754;6.978;2023-11-21T04:33:49;107.38;;;39.75;;
39524;SDS011;25203;50.754;6.978;2023-11-21T04:35:49;151.25;;;42.40;;
39524;SDS011;25203;50.754;6.978;2023-11-21T04:37:50;141.65;;;41.63;;
39524;SDS011;25203;50.754;6.978;2023-11-21T04:39:51;112.03;;;37.13;;
39524;SDS011;25203;50.754;6.978;2023-11-21T04:41:52;113.78;;;39.05;;
39524;SDS011;25203;50.754;6.978;2023-11-21T04:43:52;124.93;;;39.67;;
39524;SDS011;25203;50.754;6.978;2023-11-21T04:45:54;125.25;;;40.78;;
39524;SDS011;25203;50.754;6.978;2023-11-21T04:47:55;108.07;;;35.25;;
39524;SDS011;25203;50.754;6.978;2023-11-21T04:49:56;118.20;;;37.10;;
39524;SDS011;25203;50.754;6.978;2023-11-21T04:51:56;122.32;;;39.97;;
39524;SDS011;25203;50.754;6.978;2023-11-21T04:53:57;120.68;;;38.28;;
39524;SDS011;25203;50.754;6.978;2023-11-21T04:55:58;109.20;;;36.63;;
39524;SDS011;25203;50.754;6.978;2023-11-21T04:57:58;97.45;;;34.88;;
39524;SDS011;25203;50.754;6.978;2023-11-21T04:59:59;94.72;;;33.28;;
39524;SDS011;25203;50.754;6.978;2023-11-21T05:02:00;111.05;;;33.20;;
39524;SDS011;25203;50.754;6.978;2023-11-21T05:04:00;87.97;;;30.67;;
39524;SDS011;25203;50.754;6.978;2023-11-21T05:06:01;101.65;;;31.38;;
39524;SDS011;25203;50.754;6.978;2023-11-21T05:08:02;107.35;;;33.20;;
39524;SDS011;25203;50.754;6.978;2023-11-21T05:10:04;93.82;;;31.77;;
39524;SDS011;25203;50.754;6.978;2023-11-21T05:12:10;86.07;;;32.30;;
39524;SDS011;25203;50.754;6.978;2023-11-21T05:14:11;93.00;;;32.55;;
39524;SDS011;25203;50.754;6.978;2023-11-21T05:16:13;112.22;;;38.70;;
39524;SDS011;25203;50.754;6.978;2023-11-21T05:18:14;114.95;;;35.83;;
39524;SDS011;25203;50.754;6.978;2023-11-21T05:20:15;108.00;;;34.83;;
39524;SDS011;25203;50.754;6.978;2023-11-21T05:22:23;100.85;;;33.28;;
39524;SDS011;25203;50.754;6.978;2023-11-21T05:24:24;119.80;;;35.78;;
39524;SDS011;25203;50.754;6.978;2023-11-21T05:26:25;102.80;;;34.25;;
39524;SDS011;25203;50.754;6.978;2023-11-21T05:28:25;110.85;;;35.63;;
39524;SDS011;25203;50.754;6.978;2023-11-21T05:30:26;99.63;;;33.10;;
39524;SDS011;25203;50.754;6.978;2023-11-21T05:32:27;107.95;;;34.05;;
39524;SDS011;25203;50.754;6.978;2023-11-21T05:34:27;117.55;;;35.88;;
39524;SDS011;25203;50.754;6.978;2023-11-21T05:36:28;109.82;;;36.70;;
39524;SDS011;25203;50.754;6.978;2023-11-21T05:38:28;122.63;;;38.33;;
39524;SDS011;25203;50.754;6.978;2023-11-21T05:40:29;110.18;;;34.08;;
39524;SDS011;25203;50.754;6.978;2023-11-21T05:42:30;100.85;;;35.25;;
39524;SDS011;25203;50.754;6.978;2023-11-21T05:44:31;136.32;;;38.55;;
39524;SDS011;25203;50.754;6.978;2023-11-21T05:46:31;113.45;;;35.38;;
39524;SDS011;25203;50.754;6.978;2023-11-21T05:48:32;118.07;;;36.88;;
39524;SDS011;25203;50.754;6.978;2023-11-21T05:50:32;139.43;;;37.45;;
39524;SDS011;25203;50.754;6.978;2023-11-21T05:52:33;101.03;;;33.28;;
39524;SDS011;25203;50.754;6.978;2023-11-21T05:54:34;156.70;;;38.33;;
39524;SDS011;25203;50.754;6.978;2023-11-21T05:56:34;112.95;;;32.92;;
39524;SDS011;25203;50.754;6.978;2023-11-21T05:58:35;141.13;;;37.45;;
39524;SDS011;25203;50.754;6.978;2023-11-21T06:00:35;100.45;;;34.10;;
39524;SDS011;25203;50.754;6.978;2023-11-21T06:02:37;122.65;;;34.72;;
39524;SDS011;25203;50.754;6.978;2023-11-21T06:04:39;101.90;;;33.78;;
39524;SDS011;25203;50.754;6.978;2023-11-21T06:06:40;104.03;;;32.58;;
39524;SDS011;25203;50.754;6.978;2023-11-21T06:08:40;98.05;;;30.90;;
39524;SDS011;25203;50.754;6.978;2023-11-21T06:10:41;106.70;;;34.78;;
39524;SDS011;25203;50.754;6.978;2023-11-21T06:12:41;116.75;;;34.83;;
39524;SDS011;25203;50.754;6.978;2023-11-21T06:14:42;121.85;;;34.33;;
39524;SDS011;25203;50.754;6.978;2023-11-21T06:16:43;91.15;;;30.52;;
39524;SDS011;25203;50.754;6.978;2023-11-21T06:18:45;97.22;;;32.13;;
39524;SDS011;25203;50.754;6.978;2023-11-21T06:20:46;119.07;;;34.70;;
39524;SDS011;25203;50.754;6.978;2023-11-21T06:22:47;124.28;;;35.00;;
39524;SDS011;25203;50.754;6.978;2023-11-21T06:24:49;108.88;;;31.63;;
39524;SDS011;25203;50.754;6.978;2023-11-21T06:26:49;118.00;;;34.25;;
39524;SDS011;25203;50.754;6.978;2023-11-21T06:28:50;127.65;;;35.38;;
39524;SDS011;25203;50.754;6.978;2023-11-21T06:30:51;116.68;;;35.65;;
39524;SDS011;25203;50.754;6.978;2023-11-21T06:32:53;119.03;;;36.13;;
39524;SDS011;25203;50.754;6.978;2023-11-21T06:34:53;127.57;;;36.58;;
39524;SDS011;25203;50.754;6.978;2023-11-21T06:36:54;108.93;;;33.97;;
39524;SDS011;25203;50.754;6.978;2023-11-21T06:38:55;126.75;;;35.92;;
39524;SDS011;25203;50.754;6.978;2023-11-21T06:40:56;119.88;;;33.83;;
39524;SDS011;25203;50.754;6.978;2023-11-21T06:42:58;121.18;;;32.83;;
39524;SDS011;25203;50.754;6.978;2023-11-21T06:44:58;126.95;;;33.33;;
39524;SDS011;25203;50.754;6.978;2023-11-21T06:46:59;130.48;;;34.65;;
39524;SDS011;25203;50.754;6.978;2023-11-21T06:49:00;126.13;;;34.35;;
39524;SDS011;25203;50.754;6.978;2023-11-21T06:51:00;118.88;;;32.58;;
39524;SDS011;25203;50.754;6.978;2023-11-21T06:53:01;126.50;;;35.30;;
39524;SDS011;25203;50.754;6.978;2023-11-21T06:55:04;139.60;;;37.78;;
39524;SDS011;25203;50.754;6.978;2023-11-21T06:57:05;137.73;;;37.58;;
39524;SDS011;25203;50.754;6.978;2023-11-21T06:59:05;134.70;;;38.38;;
39524;SDS011;25203;50.754;6.978;2023-11-21T07:01:06;146.50;;;39.67;;
39524;SDS011;25203;50.754;6.978;2023-11-21T07:03:07;155.00;;;42.83;;
39524;SDS011;25203;50.754;6.978;2023-11-21T07:05:07;136.50;;;40.05;;
39524;SDS011;25203;50.754;6.978;2023-11-21T07:07:08;166.60;;;45.42;;
39524;SDS011;25203;50.754;6.978;2023-11-21T07:09:09;149.48;;;41.85;;
39524;SDS011;25203;50.754;6.978;2023-11-21T07:11:11;149.45;;;39.95;;
39524;SDS011;25203;50.754;6.978;2023-11-21T07:13:12;147.30;;;40.15;;
39524;SDS011;25203;50.754;6.978;2023-11-21T07:15:12;145.68;;;44.10;;
39524;SDS011;25203;50.754;6.978;2023-11-21T07:17:13;149.68;;;44.17;;
39524;SDS011;25203;50.754;6.978;2023-11-21T07:19:14;156.40;;;46.00;;
39524;SDS011;25203;50.754;6.978;2023-11-21T07:21:14;152.98;;;42.50;;
39524;SDS011;25203;50.754;6.978;2023-11-21T07:23:16;151.95;;;43.13;;
39524;SDS011;25203;50.754;6.978;2023-11-21T07:25:16;134.98;;;40.53;;
39524;SDS011;25203;50.754;6.978;2023-11-21T07:27:17;221.85;;;49.83;;
39524;SDS011;25203;50.754;6.978;2023-11-21T07:29:18;117.57;;;40.88;;
39524;SDS011;25203;50.754;6.978;2023-11-21T07:31:19;136.63;;;41.53;;
39524;SDS011;25203;50.754;6.978;2023-11-21T07:33:19;149.55;;;41.55;;
39524;SDS011;25203;50.754;6.978;2023-11-21T07:35:21;132.75;;;40.03;;
39524;SDS011;25203;50.754;6.978;2023-11-21T07:37:22;217.52;;;45.92;;
39524;SDS011;25203;50.754;6.978;2023-11-21T07:39:22;166.40;;;40.47;;
39524;SDS011;25203;50.754;6.978;2023-11-21T07:41:23;178.07;;;41.97;;
39524;SDS011;25203;50.754;6.978;2023-11-21T07:43:23;162.05;;;39.67;;
39524;SDS011;25203;50.754;6.978;2023-11-21T07:45:26;125.60;;;35.58;;
39524;SDS011;25203;50.754;6.978;2023-11-21T07:47:27;145.02;;;39.17;;
39524;SDS011;25203;50.754;6.978;2023-11-21T07:49:28;147.50;;;38.65;;
39524;SDS011;25203;50.754;6.978;2023-11-21T07:51:28;113.75;;;35.60;;
39524;SDS011;25203;50.754;6.978;2023-11-21T07:53:29;113.00;;;34.50;;
39524;SDS011;25203;50.754;6.978;2023-11-21T07:55:30;172.05;;;40.22;;
39524;SDS011;25203;50.754;6.978;2023-11-21T07:57:32;144.50;;;37.63;;
39524;SDS011;25203;50.754;6.978;2023-11-21T07:59:32;135.40;;;37.22;;
39524;SDS011;25203;50.754;6.978;2023-11-21T08:01:33;106.20;;;35.55;;
39524;SDS011;25203;50.754;6.978;2023-11-21T08:03:34;118.95;;;36.40;;
39524;SDS011;25203;50.754;6.978;2023-11-21T08:05:34;99.82;;;33.45;;
39524;SDS011;25203;50.754;6.978;2023-11-21T08:07:35;115.68;;;34.78;;
39524;SDS011;25203;50.754;6.978;2023-11-21T08:09:35;121.38;;;39.08;;
39524;SDS011;25203;50.754;6.978;2023-11-21T08:11:36;115.70;;;35.45;;
39524;SDS011;25203;50.754;6.978;2023-11-21T08:13:39;85.90;;;33.97;;
39524;SDS011;25203;50.754;6.978;2023-11-21T08:15:39;104.97;;;36.42;;
39524;SDS011;25203;50.754;6.978;2023-11-21T08:17:40;109.10;;;35.33;;
39524;SDS011;25203;50.754;6.978;2023-11-21T08:19:41;107.72;;;36.35;;
39524;SDS011;25203;50.754;6.978;2023-11-21T08:21:41;111.15;;;37.78;;
39524;SDS011;25203;50.754;6.978;2023-11-21T08:23:42;113.47;;;35.35;;
39524;SDS011;25203;50.754;6.978;2023-11-21T08:25:46;124.53;;;39.15;;
39524;SDS011;25203;50.754;6.978;2023-11-21T08:27:47;104.57;;;36.22;;
39524;SDS011;25203;50.754;6.978;2023-11-21T08:29:47;111.25;;;36.45;;
39524;SDS011;25203;50.754;6.978;2023-11-21T08:31:48;108.05;;;36.50;;
39524;SDS011;25203;50.754;6.978;2023-11-21T08:33:49;109.47;;;39.63;;
39524;SDS011;25203;50.754;6.978;2023-11-21T08:35:49;121.57;;;41.10;;
39524;SDS011;25203;50.754;6.978;2023-11-21T08:37:51;102.85;;;37.95;;
39524;SDS011;25203;50.754;6.978;2023-11-21T08:39:53;98.97;;;36.95;;
39524;SDS011;25203;50.754;6.978;2023-11-21T08:41:54;101.75;;;38.33;;
39524;SDS011;25203;50.754;6.978;2023-11-21T08:43:54;135.98;;;40.83;;
39524;SDS011;25203;50.754;6.978;2023-11-21T08:45:56;125.57;;;41.25;;
39524;SDS011;25203;50.754;6.978;2023-11-21T08:47:56;128.57;;;41.83;;
39524;SDS011;25203;50.754;6.978;2023-11-21T08:49:57;116.32;;;40.20;;
39524;SDS011;25203;50.754;6.978;2023-11-21T08:51:58;99.85;;;35.05;;
39524;SDS011;25203;50.754;6.978;2023-11-21T08:53:59;107.63;;;38.78;;
39524;SDS011;25203;50.754;6.978;2023-11-21T08:56:04;118.43;;;38.85;;
39524;SDS011;25203;50.754;6.978;2023-11-21T08:58:05;112.03;;;39.53;;
39524;SDS011;25203;50.754;6.978;2023-11-21T09:00:07;104.13;;;37.28;;
39524;SDS011;25203;50.754;6.978;2023-11-21T09:02:16;93.13;;;34.92;;
39524;SDS011;25203;50.754;6.978;2023-11-21T09:04:16;90.50;;;35.92;;
39524;SDS011;25203;50.754;6.978;2023-11-21T09:06:17;90.47;;;35.95;;
39524;SDS011;25203;50.754;6.978;2023-11-21T09:08:17;84.80;;;33.53;;
39524;SDS011;25203;50.754;6.978;2023-11-21T09:10:18;74.72;;;33.15;;
39524;SDS011;25203;50.754;6.978;2023-11-21T09:12:19;93.22;;;34.20;;
39524;SDS011;25203;50.754;6.978;2023-11-21T09:14:20;88.72;;;35.53;;
39524;SDS011;25203;50.754;6.978;2023-11-21T09:16:20;81.28;;;33.95;;
39524;SDS011;25203;50.754;6.978;2023-11-21T09:18:21;84.55;;;34.72;;
39524;SDS011;25203;50.754;6.978;2023-11-21T09:20:22;81.32;;;33.03;;
39524;SDS011;25203;50.754;6.978;2023-11-21T09:22:23;74.28;;;32.33;;
39524;SDS011;25203;50.754;6.978;2023-11-21T09:24:25;73.63;;;32.42;;
39524;SDS011;25203;50.754;6.978;2023-11-21T09:26:25;74.40;;;33.15;;
39524;SDS011;25203;50.754;6.978;2023-11-21T09:28:26;64.97;;;29.60;;
39524;SDS011;25203;50.754;6.978;2023-11-21T09:30:27;70.97;;;32.20;;
39524;SDS011;25203;50.754;6.978;2023-11-21T09:32:28;63.00;;;30.33;;
39524;SDS011;25203;50.754;6.978;2023-11-21T09:34:29;62.00;;;29.98;;
39524;SDS011;25203;50.754;6.978;2023-11-21T09:36:31;53.20;;;28.33;;
39524;SDS011;25203;50.754;6.978;2023-11-21T09:38:33;59.33;;;27.77;;
39524;SDS011;25203;50.754;6.978;2023-11-21T09:40:35;51.53;;;27.88;;
39524;SDS011;25203;50.754;6.978;2023-11-21T09:42:40;55.08;;;29.30;;
39524;SDS011;25203;50.754;6.978;2023-11-21T09:47:29;53.92;;;25.35;;
39524;SDS011;25203;50.754;6.978;2023-11-21T09:49:29;58.97;;;28.05;;
39524;SDS011;25203;50.754;6.978;2023-11-21T09:51:34;48.65;;;27.38;;
39524;SDS011;25203;50.754;6.978;2023-11-21T09:53:38;59.35;;;28.60;;
39524;SDS011;25203;50.754;6.978;2023-11-21T09:55:44;52.13;;;27.17;;
39524;SDS011;25203;50.754;6.978;2023-11-21T09:57:47;51.35;;;26.70;;
39524;SDS011;25203;50.754;6.978;2023-11-21T09:59:51;48.83;;;24.63;;
39524;SDS011;25203;50.754;6.978;2023-11-21T10:01:56;48.50;;;26.17;;
39524;SDS011;25203;50.754;6.978;2023-11-21T10:03:58;48.30;;;25.08;;
39524;SDS011;25203;50.754;6.978;2023-11-21T10:05:59;47.60;;;24.98;;
39524;SDS011;25203;50.754;6.978;2023-11-21T10:08:01;50.38;;;25.10;;
39524;SDS011;25203;50.754;6.978;2023-11-21T10:10:06;50.03;;;25.10;;
39524;SDS011;25203;50.754;6.978;2023-11-21T10:12:08;46.05;;;24.65;;
39524;SDS011;25203;50.754;6.978;2023-11-21T10:14:12;44.60;;;24.60;;
39524;SDS011;25203;50.754;6.978;2023-11-21T10:16:14;43.40;;;25.05;;
39524;SDS011;25203;50.754;6.978;2023-11-21T10:18:21;46.03;;;23.90;;
39524;SDS011;25203;50.754;6.978;2023-11-21T10:20:24;42.85;;;24.23;;
39524;SDS011;25203;50.754;6.978;2023-11-21T10:22:26;42.85;;;24.50;;
39524;SDS011;25203;50.754;6.978;2023-11-21T10:24:27;44.85;;;23.25;;
39524;SDS011;25203;50.754;6.978;2023-11-21T10:26:28;34.17;;;20.58;;
39524;SDS011;25203;50.754;6.978;2023-11-21T10:28:34;31.58;;;19.25;;
39524;SDS011;25203;50.754;6.978;2023-11-21T10:30:37;30.45;;;19.30;;
39524;SDS011;25203;50.754;6.978;2023-11-21T10:32:39;34.45;;;19.88;;
39524;SDS011;25203;50.754;6.978;2023-11-21T10:34:40;34.95;;;18.48;;
39524;SDS011;25203;50.754;6.978;2023-11-21T10:36:41;32.35;;;18.20;;
39524;SDS011;25203;50.754;6.978;2023-11-21T10:38:42;33.17;;;18.73;;
39524;SDS011;25203;50.754;6.978;2023-11-21T10:40:44;33.42;;;20.02;;
39524;SDS011;25203;50.754;6.978;2023-11-21T10:42:46;36.63;;;20.50;;
39524;SDS011;25203;50.754;6.978;2023-11-21T10:44:47;38.72;;;20.67;;
39524;SDS011;25203;50.754;6.978;2023-11-21T10:46:48;35.20;;;20.13;;
39524;SDS011;25203;50.754;6.978;2023-11-21T10:49:01;33.55;;;21.17;;
39524;SDS011;25203;50.754;6.978;2023-11-21T10:51:06;31.23;;;18.55;;
39524;SDS011;25203;50.754;6.978;2023-11-21T10:53:10;29.05;;;18.85;;
39524;SDS011;25203;50.754;6.978;2023-11-21T10:55:18;31.70;;;18.42;;
39524;SDS011;25203;50.754;6.978;2023-11-21T10:57:21;30.92;;;18.63;;
39524;SDS011;25203;50.754;6.978;2023-11-21T10:59:23;35.35;;;18.05;;
39524;SDS011;25203;50.754;6.978;2023-11-21T11:01:26;31.08;;;18.77;;
39524;SDS011;25203;50.754;6.978;2023-11-21T11:03:29;38.72;;;20.58;;
39524;SDS011;25203;50.754;6.978;2023-11-21T11:05:33;36.78;;;20.10;;
39524;SDS011;25203;50.754;6.978;2023-11-21T11:07:35;45.58;;;23.00;;
39524;SDS011;25203;50.754;6.978;2023-11-21T11:09:39;35.15;;;19.90;;
39524;SDS011;25203;50.754;6.978;2023-11-21T11:11:40;40.28;;;23.45;;
39524;SDS011;25203;50.754;6.978;2023-11-21T11:13:46;40.42;;;23.02;;
39524;SDS011;25203;50.754;6.978;2023-11-21T11:15:47;40.28;;;23.02;;
39524;SDS011;25203;50.754;6.978;2023-11-21T11:17:48;43.03;;;24.27;;
39524;SDS011;25203;50.754;6.978;2023-11-21T11:19:49;39.88;;;24.73;;
39524;SDS011;25203;50.754;6.978;2023-11-21T11:26:48;50.15;;;29.20;;
39524;SDS011;25203;50.754;6.978;2023-11-21T11:29:03;56.22;;;29.00;;
39524;SDS011;25203;50.754;6.978;2023-11-21T11:33:37;36.75;;;21.95;;
39524;SDS011;25203;50.754;6.978;2023-11-21T11:36:02;46.58;;;26.42;;
39524;SDS011;25203;50.754;6.978;2023-11-21T11:38:11;41.13;;;23.83;;
39524;SDS011;25203;50.754;6.978;2023-11-21T11:40:11;39.35;;;24.85;;
39524;SDS011;25203;50.754;6.978;2023-11-21T11:42:13;42.30;;;26.05;;
39524;SDS011;25203;50.754;6.978;2023-11-21T11:44:46;49.53;;;26.35;;
39524;SDS011;25203;50.754;6.978;2023-11-21T11:46:51;38.65;;;24.98;;
39524;SDS011;25203;50.754;6.978;2023-11-21T11:49:02;46.92;;;27.10;;
39524;SDS011;25203;50.754;6.978;2023-11-21T11:51:04;47.17;;;26.63;;
39524;SDS011;25203;50.754;6.978;2023-11-21T11:53:14;37.45;;;23.38;;
39524;SDS011;25203;50.754;6.978;2023-11-21T11:55:19;40.75;;;23.20;;
39524;SDS011;25203;50.754;6.978;2023-11-21T11:59:24;40.97;;;23.15;;